Avent, Mississippi
Current Conditions -  °F | °C
As of 7:53 PM on Thursday 18 Dec 2014 (Local Time) from KHBG Reporting Station
Overcast Overcast  
Wind Chill: 51°   Ceiling: 2400
Heat Index: 51°   Visibility: 10mi
Dew Point: 49°   Wind: 3mph
Humidity: 92%   Direction: 50°NE
Pressure: 30.18"   Gusts: NA
Location:  31.0532°N, 88.8084°W
Report Text: KHBG 190153Z AUTO 05003KT 10SM FEW006 OVC024 11/09 A3018 RMK AO2 SLP219 T01060094
Loading
Personal Weather Stations






























Interactive Weather Map New forecast layout! Learn more

10-Day Weather Forecast

Advertisements
Track Severe Weather on mobile